Terminal Aerodrome Forecast
Issued by NWS

Home | Current Version | Previous Version | Graphics & Text | Print | Product List | Glossary On
Versions: 1 2 3 4 5 6 7 8 9 10 11 12 13 14 15 16 17 18 19 20
000
FTUS43 KGRB 170500
TAFATW
TAF
KATW 170520Z 1706/1806 VRB03KT 6SM BR SCT004 BKN150
      TEMPO 1706/1709 1SM BR BKN004
     FM170900 VRB03KT 2SM BR BKN008 OVC060
     FM171500 31012G20KT P6SM BKN018 OVC025 PROB30 1716/1722 -SHRA
     FM180000 33015G24KT P6SM BKN025 OVC040=

USA.gov is the U.S. government's official web portal to all federal, state and local government web resources and services.